sensor_id;sensor_type;location;lat;lon;timestamp;P1;durP1;ratioP1;P2;durP2;ratioP2
47335;SDS011;33068;51.990;5.926;2022-07-29T00:00:18;1.90;;;0.75;;
47335;SDS011;33068;51.990;5.926;2022-07-29T00:02:45;0.70;;;0.40;;
47335;SDS011;33068;51.990;5.926;2022-07-29T00:05:13;3.08;;;0.60;;
47335;SDS011;33068;51.990;5.926;2022-07-29T00:07:41;2.65;;;0.40;;
47335;SDS011;33068;51.990;5.926;2022-07-29T00:10:08;0.98;;;0.55;;
47335;SDS011;33068;51.990;5.926;2022-07-29T00:12:36;1.02;;;0.70;;
47335;SDS011;33068;51.990;5.926;2022-07-29T00:15:03;2.38;;;0.52;;
47335;SDS011;33068;51.990;5.926;2022-07-29T00:17:33;1.50;;;0.73;;
47335;SDS011;33068;51.990;5.926;2022-07-29T00:20:01;1.80;;;0.45;;
47335;SDS011;33068;51.990;5.926;2022-07-29T00:22:28;2.13;;;0.73;;
47335;SDS011;33068;51.990;5.926;2022-07-29T00:24:55;0.70;;;0.60;;
47335;SDS011;33068;51.990;5.926;2022-07-29T00:27:23;6.13;;;0.80;;
47335;SDS011;33068;51.990;5.926;2022-07-29T00:29:50;2.25;;;0.60;;
47335;SDS011;33068;51.990;5.926;2022-07-29T00:32:17;2.47;;;0.50;;
47335;SDS011;33068;51.990;5.926;2022-07-29T00:34:46;0.75;;;0.40;;
47335;SDS011;33068;51.990;5.926;2022-07-29T00:37:31;1.98;;;0.52;;
47335;SDS011;33068;51.990;5.926;2022-07-29T00:40:00;1.58;;;0.50;;
47335;SDS011;33068;51.990;5.926;2022-07-29T00:42:28;3.55;;;0.60;;
47335;SDS011;33068;51.990;5.926;2022-07-29T00:44:55;0.98;;;0.60;;
47335;SDS011;33068;51.990;5.926;2022-07-29T00:47:22;0.90;;;0.60;;
47335;SDS011;33068;51.990;5.926;2022-07-29T00:49:51;2.10;;;0.60;;
47335;SDS011;33068;51.990;5.926;2022-07-29T00:52:18;0.95;;;0.40;;
47335;SDS011;33068;51.990;5.926;2022-07-29T00:54:46;1.52;;;0.80;;
47335;SDS011;33068;51.990;5.926;2022-07-29T00:57:14;3.78;;;0.75;;
47335;SDS011;33068;51.990;5.926;2022-07-29T00:59:42;2.17;;;0.70;;
47335;SDS011;33068;51.990;5.926;2022-07-29T01:02:09;1.60;;;0.90;;
47335;SDS011;33068;51.990;5.926;2022-07-29T01:04:38;0.88;;;0.60;;
47335;SDS011;33068;51.990;5.926;2022-07-29T01:07:08;0.98;;;0.75;;
47335;SDS011;33068;51.990;5.926;2022-07-29T01:09:37;2.17;;;0.60;;
47335;SDS011;33068;51.990;5.926;2022-07-29T01:12:05;4.05;;;0.70;;
47335;SDS011;33068;51.990;5.926;2022-07-29T01:14:33;1.85;;;0.80;;
47335;SDS011;33068;51.990;5.926;2022-07-29T01:17:02;1.25;;;0.80;;
47335;SDS011;33068;51.990;5.926;2022-07-29T01:19:45;2.08;;;0.95;;
47335;SDS011;33068;51.990;5.926;2022-07-29T01:22:31;1.77;;;1.02;;
47335;SDS011;33068;51.990;5.926;2022-07-29T01:25:09;3.38;;;0.60;;
47335;SDS011;33068;51.990;5.926;2022-07-29T01:27:47;3.30;;;0.70;;
47335;SDS011;33068;51.990;5.926;2022-07-29T01:30:26;2.10;;;1.30;;
47335;SDS011;33068;51.990;5.926;2022-07-29T01:32:57;2.10;;;0.50;;
47335;SDS011;33068;51.990;5.926;2022-07-29T01:35:31;1.50;;;0.60;;
47335;SDS011;33068;51.990;5.926;2022-07-29T01:38:05;0.63;;;0.55;;
47335;SDS011;33068;51.990;5.926;2022-07-29T01:40:40;1.80;;;0.85;;
47335;SDS011;33068;51.990;5.926;2022-07-29T01:43:13;0.93;;;0.65;;
47335;SDS011;33068;51.990;5.926;2022-07-29T01:45:44;1.13;;;0.70;;
47335;SDS011;33068;51.990;5.926;2022-07-29T01:48:16;2.25;;;0.73;;
47335;SDS011;33068;51.990;5.926;2022-07-29T01:50:48;1.27;;;0.68;;
47335;SDS011;33068;51.990;5.926;2022-07-29T01:53:21;2.67;;;0.80;;
47335;SDS011;33068;51.990;5.926;2022-07-29T01:55:52;2.63;;;0.70;;
47335;SDS011;33068;51.990;5.926;2022-07-29T01:58:21;2.28;;;0.80;;
47335;SDS011;33068;51.990;5.926;2022-07-29T02:00:51;3.63;;;0.70;;
47335;SDS011;33068;51.990;5.926;2022-07-29T02:03:18;2.60;;;0.80;;
47335;SDS011;33068;51.990;5.926;2022-07-29T02:05:47;1.77;;;0.60;;
47335;SDS011;33068;51.990;5.926;2022-07-29T02:08:16;0.70;;;0.57;;
47335;SDS011;33068;51.990;5.926;2022-07-29T02:10:47;1.85;;;0.93;;
47335;SDS011;33068;51.990;5.926;2022-07-29T02:13:16;1.02;;;0.68;;
47335;SDS011;33068;51.990;5.926;2022-07-29T02:15:47;2.05;;;0.52;;
47335;SDS011;33068;51.990;5.926;2022-07-29T02:18:17;1.25;;;0.77;;
47335;SDS011;33068;51.990;5.926;2022-07-29T02:20:46;1.65;;;0.65;;
47335;SDS011;33068;51.990;5.926;2022-07-29T02:23:17;4.65;;;1.10;;
47335;SDS011;33068;51.990;5.926;2022-07-29T02:25:51;2.75;;;0.95;;
47335;SDS011;33068;51.990;5.926;2022-07-29T02:28:21;2.97;;;0.98;;
47335;SDS011;33068;51.990;5.926;2022-07-29T02:30:52;1.45;;;0.77;;
47335;SDS011;33068;51.990;5.926;2022-07-29T02:33:22;2.22;;;0.80;;
47335;SDS011;33068;51.990;5.926;2022-07-29T02:35:50;4.80;;;1.13;;
47335;SDS011;33068;51.990;5.926;2022-07-29T02:38:20;2.50;;;1.08;;
47335;SDS011;33068;51.990;5.926;2022-07-29T02:41:08;1.70;;;0.70;;
47335;SDS011;33068;51.990;5.926;2022-07-29T02:43:37;1.27;;;0.75;;
47335;SDS011;33068;51.990;5.926;2022-07-29T02:46:06;1.35;;;0.82;;
47335;SDS011;33068;51.990;5.926;2022-07-29T02:48:41;1.67;;;1.05;;
47335;SDS011;33068;51.990;5.926;2022-07-29T02:51:16;2.20;;;1.10;;
47335;SDS011;33068;51.990;5.926;2022-07-29T02:53:51;0.95;;;0.85;;
47335;SDS011;33068;51.990;5.926;2022-07-29T02:56:23;1.30;;;0.85;;
47335;SDS011;33068;51.990;5.926;2022-07-29T02:58:54;3.38;;;1.00;;
47335;SDS011;33068;51.990;5.926;2022-07-29T03:01:24;2.40;;;1.20;;
47335;SDS011;33068;51.990;5.926;2022-07-29T03:03:56;3.33;;;0.90;;
47335;SDS011;33068;51.990;5.926;2022-07-29T03:06:24;1.35;;;1.10;;
47335;SDS011;33068;51.990;5.926;2022-07-29T03:08:53;3.70;;;1.27;;
47335;SDS011;33068;51.990;5.926;2022-07-29T03:11:21;3.67;;;1.23;;
47335;SDS011;33068;51.990;5.926;2022-07-29T03:13:49;1.77;;;0.85;;
47335;SDS011;33068;51.990;5.926;2022-07-29T03:16:17;3.63;;;1.08;;
47335;SDS011;33068;51.990;5.926;2022-07-29T03:18:45;1.17;;;1.02;;
47335;SDS011;33068;51.990;5.926;2022-07-29T03:21:15;2.10;;;1.25;;
47335;SDS011;33068;51.990;5.926;2022-07-29T03:23:43;2.83;;;1.50;;
47335;SDS011;33068;51.990;5.926;2022-07-29T03:26:11;2.40;;;1.20;;
47335;SDS011;33068;51.990;5.926;2022-07-29T03:28:39;2.92;;;1.90;;
47335;SDS011;33068;51.990;5.926;2022-07-29T03:31:06;3.45;;;1.60;;
47335;SDS011;33068;51.990;5.926;2022-07-29T03:33:33;2.30;;;1.33;;
47335;SDS011;33068;51.990;5.926;2022-07-29T03:36:01;4.28;;;1.38;;
47335;SDS011;33068;51.990;5.926;2022-07-29T03:38:29;5.35;;;1.80;;
47335;SDS011;33068;51.990;5.926;2022-07-29T03:41:00;2.80;;;1.77;;
47335;SDS011;33068;51.990;5.926;2022-07-29T03:43:34;3.28;;;1.42;;
47335;SDS011;33068;51.990;5.926;2022-07-29T03:46:03;3.00;;;1.88;;
47335;SDS011;33068;51.990;5.926;2022-07-29T03:48:32;2.80;;;1.92;;
47335;SDS011;33068;51.990;5.926;2022-07-29T03:51:03;3.53;;;2.15;;
47335;SDS011;33068;51.990;5.926;2022-07-29T03:53:32;4.28;;;2.00;;
47335;SDS011;33068;51.990;5.926;2022-07-29T03:56:00;2.00;;;1.83;;
47335;SDS011;33068;51.990;5.926;2022-07-29T03:58:29;3.22;;;1.92;;
47335;SDS011;33068;51.990;5.926;2022-07-29T04:00:58;2.70;;;2.30;;
47335;SDS011;33068;51.990;5.926;2022-07-29T04:03:25;4.60;;;1.92;;
47335;SDS011;33068;51.990;5.926;2022-07-29T04:05:59;5.35;;;2.08;;
47335;SDS011;33068;51.990;5.926;2022-07-29T04:08:28;5.20;;;2.50;;
47335;SDS011;33068;51.990;5.926;2022-07-29T04:10:56;5.40;;;2.55;;
47335;SDS011;33068;51.990;5.926;2022-07-29T04:13:23;4.00;;;2.33;;
47335;SDS011;33068;51.990;5.926;2022-07-29T04:15:51;5.90;;;2.65;;
47335;SDS011;33068;51.990;5.926;2022-07-29T04:18:18;4.82;;;2.40;;
47335;SDS011;33068;51.990;5.926;2022-07-29T04:20:45;4.10;;;2.67;;
47335;SDS011;33068;51.990;5.926;2022-07-29T04:23:12;8.05;;;2.58;;
47335;SDS011;33068;51.990;5.926;2022-07-29T04:25:40;2.55;;;2.35;;
47335;SDS011;33068;51.990;5.926;2022-07-29T04:28:09;3.05;;;2.03;;
47335;SDS011;33068;51.990;5.926;2022-07-29T04:30:37;2.40;;;2.20;;
47335;SDS011;33068;51.990;5.926;2022-07-29T04:33:05;2.45;;;2.10;;
47335;SDS011;33068;51.990;5.926;2022-07-29T04:35:34;5.90;;;3.28;;
47335;SDS011;33068;51.990;5.926;2022-07-29T04:38:02;2.53;;;2.08;;
47335;SDS011;33068;51.990;5.926;2022-07-29T04:40:31;3.25;;;2.97;;
47335;SDS011;33068;51.990;5.926;2022-07-29T04:42:59;3.30;;;2.75;;
47335;SDS011;33068;51.990;5.926;2022-07-29T04:45:28;4.03;;;2.35;;
47335;SDS011;33068;51.990;5.926;2022-07-29T04:47:55;3.63;;;2.83;;
47335;SDS011;33068;51.990;5.926;2022-07-29T04:50:22;3.33;;;2.35;;
47335;SDS011;33068;51.990;5.926;2022-07-29T04:52:50;5.75;;;2.40;;
47335;SDS011;33068;51.990;5.926;2022-07-29T04:55:17;2.33;;;2.13;;
47335;SDS011;33068;51.990;5.926;2022-07-29T04:57:45;2.33;;;2.13;;
47335;SDS011;33068;51.990;5.926;2022-07-29T05:00:13;2.53;;;2.03;;
47335;SDS011;33068;51.990;5.926;2022-07-29T05:02:42;2.50;;;2.30;;
47335;SDS011;33068;51.990;5.926;2022-07-29T05:05:10;3.75;;;2.25;;
47335;SDS011;33068;51.990;5.926;2022-07-29T05:07:37;6.57;;;2.40;;
47335;SDS011;33068;51.990;5.926;2022-07-29T05:10:05;5.03;;;2.35;;
47335;SDS011;33068;51.990;5.926;2022-07-29T05:12:32;5.68;;;2.47;;
47335;SDS011;33068;51.990;5.926;2022-07-29T05:14:59;1.95;;;1.83;;
47335;SDS011;33068;51.990;5.926;2022-07-29T05:17:27;6.28;;;2.45;;
47335;SDS011;33068;51.990;5.926;2022-07-29T05:19:56;2.67;;;2.17;;
47335;SDS011;33068;51.990;5.926;2022-07-29T05:22:23;3.10;;;2.40;;
47335;SDS011;33068;51.990;5.926;2022-07-29T05:24:51;5.40;;;2.50;;
47335;SDS011;33068;51.990;5.926;2022-07-29T05:27:18;2.78;;;2.58;;
47335;SDS011;33068;51.990;5.926;2022-07-29T05:29:45;2.53;;;2.13;;
47335;SDS011;33068;51.990;5.926;2022-07-29T05:32:14;5.88;;;2.25;;
47335;SDS011;33068;51.990;5.926;2022-07-29T05:34:41;2.80;;;2.60;;
47335;SDS011;33068;51.990;5.926;2022-07-29T05:37:12;5.15;;;2.58;;
47335;SDS011;33068;51.990;5.926;2022-07-29T05:39:41;2.47;;;2.22;;
47335;SDS011;33068;51.990;5.926;2022-07-29T05:42:08;5.05;;;2.20;;
47335;SDS011;33068;51.990;5.926;2022-07-29T05:44:36;5.28;;;2.63;;
47335;SDS011;33068;51.990;5.926;2022-07-29T05:47:05;5.70;;;2.22;;
47335;SDS011;33068;51.990;5.926;2022-07-29T05:49:32;5.68;;;2.88;;
47335;SDS011;33068;51.990;5.926;2022-07-29T05:52:00;3.90;;;2.83;;
47335;SDS011;33068;51.990;5.926;2022-07-29T05:54:28;2.40;;;2.20;;
47335;SDS011;33068;51.990;5.926;2022-07-29T05:56:56;4.55;;;2.72;;
47335;SDS011;33068;51.990;5.926;2022-07-29T05:59:23;2.38;;;2.17;;
47335;SDS011;33068;51.990;5.926;2022-07-29T06:01:51;4.90;;;2.40;;
47335;SDS011;33068;51.990;5.926;2022-07-29T06:04:18;6.00;;;2.22;;
47335;SDS011;33068;51.990;5.926;2022-07-29T06:06:45;4.13;;;2.53;;
47335;SDS011;33068;51.990;5.926;2022-07-29T06:09:13;2.50;;;2.30;;
47335;SDS011;33068;51.990;5.926;2022-07-29T06:11:41;3.05;;;2.75;;
47335;SDS011;33068;51.990;5.926;2022-07-29T06:14:08;2.95;;;2.58;;
47335;SDS011;33068;51.990;5.926;2022-07-29T06:16:36;6.25;;;2.38;;
47335;SDS011;33068;51.990;5.926;2022-07-29T06:19:03;2.53;;;1.85;;
47335;SDS011;33068;51.990;5.926;2022-07-29T06:21:33;3.17;;;2.25;;
47335;SDS011;33068;51.990;5.926;2022-07-29T06:24:02;2.30;;;1.92;;
47335;SDS011;33068;51.990;5.926;2022-07-29T06:26:30;2.35;;;2.13;;
47335;SDS011;33068;51.990;5.926;2022-07-29T06:29:01;4.25;;;2.22;;
47335;SDS011;33068;51.990;5.926;2022-07-29T06:31:28;5.07;;;2.13;;
47335;SDS011;33068;51.990;5.926;2022-07-29T06:33:56;3.22;;;2.30;;
47335;SDS011;33068;51.990;5.926;2022-07-29T06:36:23;1.92;;;1.83;;
47335;SDS011;33068;51.990;5.926;2022-07-29T06:38:50;3.20;;;1.95;;
47335;SDS011;33068;51.990;5.926;2022-07-29T06:41:18;2.22;;;1.50;;
47335;SDS011;33068;51.990;5.926;2022-07-29T06:43:47;2.80;;;1.65;;
47335;SDS011;33068;51.990;5.926;2022-07-29T06:46:18;3.25;;;1.67;;
47335;SDS011;33068;51.990;5.926;2022-07-29T06:48:46;1.67;;;1.58;;
47335;SDS011;33068;51.990;5.926;2022-07-29T06:51:14;2.33;;;1.50;;
47335;SDS011;33068;51.990;5.926;2022-07-29T06:53:42;1.60;;;1.50;;
47335;SDS011;33068;51.990;5.926;2022-07-29T06:56:09;2.17;;;1.40;;
47335;SDS011;33068;51.990;5.926;2022-07-29T06:58:39;1.23;;;1.15;;
47335;SDS011;33068;51.990;5.926;2022-07-29T07:01:06;4.82;;;1.50;;
47335;SDS011;33068;51.990;5.926;2022-07-29T07:03:35;6.05;;;2.08;;
47335;SDS011;33068;51.990;5.926;2022-07-29T07:06:02;1.92;;;1.38;;
47335;SDS011;33068;51.990;5.926;2022-07-29T07:08:29;7.45;;;2.38;;
47335;SDS011;33068;51.990;5.926;2022-07-29T07:10:57;4.13;;;1.83;;
47335;SDS011;33068;51.990;5.926;2022-07-29T07:13:24;2.45;;;1.38;;
47335;SDS011;33068;51.990;5.926;2022-07-29T07:15:53;2.78;;;1.40;;
47335;SDS011;33068;51.990;5.926;2022-07-29T07:18:20;7.35;;;1.50;;
47335;SDS011;33068;51.990;5.926;2022-07-29T07:20:49;4.88;;;2.13;;
47335;SDS011;33068;51.990;5.926;2022-07-29T07:23:16;2.15;;;1.40;;
47335;SDS011;33068;51.990;5.926;2022-07-29T07:25:44;2.95;;;1.70;;
47335;SDS011;33068;51.990;5.926;2022-07-29T07:28:11;1.75;;;1.52;;
47335;SDS011;33068;51.990;5.926;2022-07-29T07:30:46;2.83;;;1.52;;
47335;SDS011;33068;51.990;5.926;2022-07-29T07:33:13;5.18;;;1.40;;
47335;SDS011;33068;51.990;5.926;2022-07-29T07:35:41;2.28;;;1.50;;
47335;SDS011;33068;51.990;5.926;2022-07-29T07:38:10;2.63;;;1.40;;
47335;SDS011;33068;51.990;5.926;2022-07-29T07:40:38;2.40;;;1.73;;
47335;SDS011;33068;51.990;5.926;2022-07-29T07:43:05;1.65;;;1.27;;
47335;SDS011;33068;51.990;5.926;2022-07-29T07:45:43;1.65;;;1.17;;
47335;SDS011;33068;51.990;5.926;2022-07-29T07:48:16;2.38;;;1.50;;
47335;SDS011;33068;51.990;5.926;2022-07-29T07:50:44;2.53;;;1.77;;
47335;SDS011;33068;51.990;5.926;2022-07-29T07:53:12;2.13;;;1.48;;
47335;SDS011;33068;51.990;5.926;2022-07-29T07:55:40;1.27;;;1.17;;
47335;SDS011;33068;51.990;5.926;2022-07-29T07:58:08;7.57;;;1.58;;
47335;SDS011;33068;51.990;5.926;2022-07-29T08:00:36;3.15;;;1.70;;
47335;SDS011;33068;51.990;5.926;2022-07-29T08:03:03;3.90;;;1.83;;
47335;SDS011;33068;51.990;5.926;2022-07-29T08:05:30;7.88;;;1.55;;
47335;SDS011;33068;51.990;5.926;2022-07-29T08:07:58;3.35;;;1.48;;
47335;SDS011;33068;51.990;5.926;2022-07-29T08:10:26;3.38;;;1.80;;
47335;SDS011;33068;51.990;5.926;2022-07-29T08:15:38;2.92;;;1.50;;
47335;SDS011;33068;51.990;5.926;2022-07-29T08:18:06;2.75;;;1.38;;
47335;SDS011;33068;51.990;5.926;2022-07-29T08:20:34;2.60;;;1.42;;
47335;SDS011;33068;51.990;5.926;2022-07-29T08:23:03;2.22;;;1.67;;
47335;SDS011;33068;51.990;5.926;2022-07-29T08:25:33;2.67;;;1.52;;
47335;SDS011;33068;51.990;5.926;2022-07-29T08:28:00;1.83;;;1.40;;
47335;SDS011;33068;51.990;5.926;2022-07-29T08:30:28;4.20;;;1.63;;
47335;SDS011;33068;51.990;5.926;2022-07-29T08:32:55;1.73;;;1.40;;
47335;SDS011;33068;51.990;5.926;2022-07-29T08:35:22;4.32;;;1.40;;
47335;SDS011;33068;51.990;5.926;2022-07-29T08:37:50;2.35;;;1.33;;
47335;SDS011;33068;51.990;5.926;2022-07-29T08:40:18;1.85;;;1.67;;
47335;SDS011;33068;51.990;5.926;2022-07-29T08:42:47;3.10;;;1.67;;
47335;SDS011;33068;51.990;5.926;2022-07-29T08:45:16;3.88;;;1.50;;
47335;SDS011;33068;51.990;5.926;2022-07-29T08:47:43;2.25;;;1.70;;
47335;SDS011;33068;51.990;5.926;2022-07-29T08:50:11;3.85;;;1.60;;
47335;SDS011;33068;51.990;5.926;2022-07-29T08:52:39;2.75;;;1.80;;
47335;SDS011;33068;51.990;5.926;2022-07-29T08:55:08;1.67;;;1.45;;
47335;SDS011;33068;51.990;5.926;2022-07-29T08:57:37;4.53;;;1.30;;
47335;SDS011;33068;51.990;5.926;2022-07-29T09:00:08;2.92;;;1.50;;
47335;SDS011;33068;51.990;5.926;2022-07-29T09:02:39;1.92;;;1.67;;
47335;SDS011;33068;51.990;5.926;2022-07-29T09:05:06;3.85;;;1.90;;
47335;SDS011;33068;51.990;5.926;2022-07-29T09:07:34;3.05;;;1.35;;
47335;SDS011;33068;51.990;5.926;2022-07-29T09:10:03;5.63;;;1.92;;
47335;SDS011;33068;51.990;5.926;2022-07-29T09:12:32;3.22;;;1.50;;
47335;SDS011;33068;51.990;5.926;2022-07-29T09:16:03;3.63;;;1.50;;
47335;SDS011;33068;51.990;5.926;2022-07-29T09:18:07;1.58;;;1.20;;
47335;SDS011;33068;51.990;5.926;2022-07-29T09:20:34;2.50;;;1.27;;
47335;SDS011;33068;51.990;5.926;2022-07-29T09:23:19;2.53;;;1.50;;
47335;SDS011;33068;51.990;5.926;2022-07-29T09:25:47;3.03;;;1.45;;
47335;SDS011;33068;51.990;5.926;2022-07-29T09:28:15;3.17;;;1.13;;
47335;SDS011;33068;51.990;5.926;2022-07-29T09:30:49;2.88;;;1.33;;
47335;SDS011;33068;51.990;5.926;2022-07-29T09:33:19;4.18;;;1.70;;
47335;SDS011;33068;51.990;5.926;2022-07-29T09:35:58;4.45;;;1.77;;
47335;SDS011;33068;51.990;5.926;2022-07-29T09:38:26;1.95;;;1.60;;
47335;SDS011;33068;51.990;5.926;2022-07-29T09:40:55;2.13;;;1.58;;
47335;SDS011;33068;51.990;5.926;2022-07-29T09:43:23;1.70;;;1.35;;
47335;SDS011;33068;51.990;5.926;2022-07-29T09:45:51;2.38;;;1.77;;
47335;SDS011;33068;51.990;5.926;2022-07-29T09:48:21;3.95;;;1.85;;
47335;SDS011;33068;51.990;5.926;2022-07-29T09:50:50;2.08;;;1.70;;
47335;SDS011;33068;51.990;5.926;2022-07-29T09:56:06;2.77;;;1.53;;
47335;SDS011;33068;51.990;5.926;2022-07-29T09:58:35;4.72;;;1.52;;
47335;SDS011;33068;51.990;5.926;2022-07-29T10:01:03;2.78;;;1.38;;
47335;SDS011;33068;51.990;5.926;2022-07-29T10:03:31;1.75;;;1.65;;
47335;SDS011;33068;51.990;5.926;2022-07-29T10:06:06;1.58;;;1.35;;
47335;SDS011;33068;51.990;5.926;2022-07-29T10:08:34;3.63;;;2.43;;
47335;SDS011;33068;51.990;5.926;2022-07-29T10:13:49;3.25;;;1.80;;
47335;SDS011;33068;51.990;5.926;2022-07-29T10:16:16;1.52;;;1.35;;
47335;SDS011;33068;51.990;5.926;2022-07-29T10:18:45;3.95;;;1.63;;
47335;SDS011;33068;51.990;5.926;2022-07-29T10:21:13;2.22;;;1.23;;
47335;SDS011;33068;51.990;5.926;2022-07-29T10:23:40;1.98;;;1.48;;
47335;SDS011;33068;51.990;5.926;2022-07-29T10:26:08;2.67;;;1.45;;
47335;SDS011;33068;51.990;5.926;2022-07-29T10:28:37;3.97;;;1.38;;
47335;SDS011;33068;51.990;5.926;2022-07-29T10:31:05;4.50;;;1.42;;
47335;SDS011;33068;51.990;5.926;2022-07-29T10:33:38;4.32;;;1.63;;
47335;SDS011;33068;51.990;5.926;2022-07-29T10:36:23;3.65;;;1.20;;
47335;SDS011;33068;51.990;5.926;2022-07-29T10:39:08;3.80;;;1.60;;
47335;SDS011;33068;51.990;5.926;2022-07-29T10:41:57;2.20;;;1.35;;
47335;SDS011;33068;51.990;5.926;2022-07-29T10:44:32;1.75;;;1.30;;
47335;SDS011;33068;51.990;5.926;2022-07-29T10:47:00;4.40;;;1.33;;
47335;SDS011;33068;51.990;5.926;2022-07-29T10:49:29;3.20;;;1.00;;
47335;SDS011;33068;51.990;5.926;2022-07-29T10:52:00;4.68;;;1.20;;
47335;SDS011;33068;51.990;5.926;2022-07-29T10:54:40;1.52;;;0.98;;
47335;SDS011;33068;51.990;5.926;2022-07-29T10:57:13;3.28;;;0.95;;
47335;SDS011;33068;51.990;5.926;2022-07-29T10:59:46;4.00;;;1.27;;
47335;SDS011;33068;51.990;5.926;2022-07-29T11:05:18;3.13;;;1.20;;
47335;SDS011;33068;51.990;5.926;2022-07-29T11:10:48;3.15;;;1.50;;
47335;SDS011;33068;51.990;5.926;2022-07-29T11:16:15;1.08;;;0.98;;
47335;SDS011;33068;51.990;5.926;2022-07-29T11:21:47;3.50;;;1.08;;
47335;SDS011;33068;51.990;5.926;2022-07-29T11:24:20;2.95;;;1.27;;
47335;SDS011;33068;51.990;5.926;2022-07-29T11:27:07;1.63;;;1.20;;
47335;SDS011;33068;51.990;5.926;2022-07-29T11:29:38;2.13;;;1.30;;
47335;SDS011;33068;51.990;5.926;2022-07-29T11:32:08;2.92;;;1.13;;
47335;SDS011;33068;51.990;5.926;2022-07-29T11:34:36;2.15;;;1.10;;
47335;SDS011;33068;51.990;5.926;2022-07-29T11:37:23;3.88;;;1.08;;
47335;SDS011;33068;51.990;5.926;2022-07-29T11:42:51;2.63;;;1.27;;
47335;SDS011;33068;51.990;5.926;2022-07-29T11:45:20;4.78;;;1.10;;
47335;SDS011;33068;51.990;5.926;2022-07-29T11:47:57;4.35;;;1.00;;
47335;SDS011;33068;51.990;5.926;2022-07-29T11:50:30;3.55;;;0.82;;
47335;SDS011;33068;51.990;5.926;2022-07-29T11:53:01;4.60;;;0.73;;
47335;SDS011;33068;51.990;5.926;2022-07-29T11:55:30;3.10;;;1.42;;
47335;SDS011;33068;51.990;5.926;2022-07-29T11:58:01;2.10;;;0.90;;
47335;SDS011;33068;51.990;5.926;2022-07-29T12:00:31;3.30;;;1.20;;
47335;SDS011;33068;51.990;5.926;2022-07-29T12:02:59;1.02;;;0.80;;
47335;SDS011;33068;51.990;5.926;2022-07-29T12:05:33;3.90;;;1.13;;
47335;SDS011;33068;51.990;5.926;2022-07-29T12:08:08;2.00;;;0.80;;
47335;SDS011;33068;51.990;5.926;2022-07-29T12:10:41;2.67;;;1.00;;
47335;SDS011;33068;51.990;5.926;2022-07-29T12:13:09;3.33;;;0.80;;
47335;SDS011;33068;51.990;5.926;2022-07-29T12:15:37;1.42;;;1.00;;
47335;SDS011;33068;51.990;5.926;2022-07-29T12:18:11;1.00;;;0.70;;
47335;SDS011;33068;51.990;5.926;2022-07-29T12:20:43;3.55;;;0.90;;
47335;SDS011;33068;51.990;5.926;2022-07-29T12:23:14;3.65;;;0.80;;
47335;SDS011;33068;51.990;5.926;2022-07-29T12:25:47;3.05;;;0.80;;
47335;SDS011;33068;51.990;5.926;2022-07-29T12:28:15;4.05;;;1.27;;
47335;SDS011;33068;51.990;5.926;2022-07-29T12:30:44;1.98;;;0.98;;
47335;SDS011;33068;51.990;5.926;2022-07-29T12:33:17;2.17;;;0.80;;
47335;SDS011;33068;51.990;5.926;2022-07-29T12:35:47;1.85;;;0.80;;
47335;SDS011;33068;51.990;5.926;2022-07-29T12:38:18;2.67;;;0.90;;
47335;SDS011;33068;51.990;5.926;2022-07-29T12:40:46;3.65;;;1.52;;
47335;SDS011;33068;51.990;5.926;2022-07-29T12:43:16;1.33;;;0.88;;
47335;SDS011;33068;51.990;5.926;2022-07-29T12:45:45;1.13;;;0.70;;
47335;SDS011;33068;51.990;5.926;2022-07-29T12:48:15;2.33;;;1.00;;
47335;SDS011;33068;51.990;5.926;2022-07-29T12:50:59;1.65;;;0.75;;
47335;SDS011;33068;51.990;5.926;2022-07-29T12:53:30;4.45;;;1.00;;
47335;SDS011;33068;51.990;5.926;2022-07-29T12:55:57;3.65;;;0.80;;
47335;SDS011;33068;51.990;5.926;2022-07-29T12:58:34;0.93;;;0.60;;
47335;SDS011;33068;51.990;5.926;2022-07-29T13:01:08;1.88;;;0.90;;
47335;SDS011;33068;51.990;5.926;2022-07-29T13:03:44;2.10;;;0.80;;
47335;SDS011;33068;51.990;5.926;2022-07-29T13:09:05;2.63;;;0.85;;
47335;SDS011;33068;51.990;5.926;2022-07-29T13:11:34;1.75;;;1.00;;
47335;SDS011;33068;51.990;5.926;2022-07-29T13:14:02;1.65;;;0.80;;
47335;SDS011;33068;51.990;5.926;2022-07-29T13:16:30;1.33;;;0.80;;
47335;SDS011;33068;51.990;5.926;2022-07-29T13:19:04;2.47;;;0.70;;
47335;SDS011;33068;51.990;5.926;2022-07-29T13:21:33;1.15;;;0.60;;
47335;SDS011;33068;51.990;5.926;2022-07-29T13:24:00;1.23;;;0.90;;
47335;SDS011;33068;51.990;5.926;2022-07-29T13:26:29;1.02;;;0.55;;
47335;SDS011;33068;51.990;5.926;2022-07-29T13:28:57;1.88;;;0.60;;
47335;SDS011;33068;51.990;5.926;2022-07-29T13:31:24;1.85;;;0.55;;
47335;SDS011;33068;51.990;5.926;2022-07-29T13:33:51;1.05;;;0.50;;
47335;SDS011;33068;51.990;5.926;2022-07-29T13:36:18;1.85;;;0.65;;
47335;SDS011;33068;51.990;5.926;2022-07-29T13:38:45;2.63;;;0.70;;
47335;SDS011;33068;51.990;5.926;2022-07-29T13:43:41;4.78;;;0.70;;
47335;SDS011;33068;51.990;5.926;2022-07-29T13:46:08;0.60;;;0.40;;
47335;SDS011;33068;51.990;5.926;2022-07-29T13:48:35;1.58;;;0.60;;
47335;SDS011;33068;51.990;5.926;2022-07-29T13:51:02;1.48;;;0.50;;
47335;SDS011;33068;51.990;5.926;2022-07-29T13:53:29;1.50;;;0.80;;
47335;SDS011;33068;51.990;5.926;2022-07-29T13:55:57;1.83;;;0.60;;
47335;SDS011;33068;51.990;5.926;2022-07-29T13:58:25;1.73;;;0.75;;
47335;SDS011;33068;51.990;5.926;2022-07-29T14:00:54;3.38;;;0.60;;
47335;SDS011;33068;51.990;5.926;2022-07-29T14:03:22;1.95;;;0.75;;
47335;SDS011;33068;51.990;5.926;2022-07-29T14:05:49;1.48;;;0.55;;
47335;SDS011;33068;51.990;5.926;2022-07-29T14:08:16;1.73;;;0.80;;
47335;SDS011;33068;51.990;5.926;2022-07-29T14:10:44;3.63;;;0.80;;
47335;SDS011;33068;51.990;5.926;2022-07-29T14:13:11;1.33;;;0.60;;
47335;SDS011;33068;51.990;5.926;2022-07-29T14:15:39;1.05;;;0.70;;
47335;SDS011;33068;51.990;5.926;2022-07-29T14:18:07;1.63;;;0.60;;
47335;SDS011;33068;51.990;5.926;2022-07-29T14:20:34;1.55;;;0.82;;
47335;SDS011;33068;51.990;5.926;2022-07-29T14:23:02;1.55;;;0.70;;
47335;SDS011;33068;51.990;5.926;2022-07-29T14:25:29;2.03;;;0.70;;
47335;SDS011;33068;51.990;5.926;2022-07-29T14:27:57;3.92;;;0.90;;
47335;SDS011;33068;51.990;5.926;2022-07-29T14:30:24;3.65;;;0.70;;
47335;SDS011;33068;51.990;5.926;2022-07-29T14:32:52;1.75;;;0.70;;
47335;SDS011;33068;51.990;5.926;2022-07-29T14:35:24;2.33;;;0.65;;
47335;SDS011;33068;51.990;5.926;2022-07-29T14:37:52;1.65;;;0.70;;
47335;SDS011;33068;51.990;5.926;2022-07-29T14:40:19;1.88;;;0.70;;
47335;SDS011;33068;51.990;5.926;2022-07-29T14:42:47;2.13;;;0.63;;
47335;SDS011;33068;51.990;5.926;2022-07-29T14:45:15;1.20;;;0.90;;
47335;SDS011;33068;51.990;5.926;2022-07-29T14:47:43;1.83;;;0.65;;
47335;SDS011;33068;51.990;5.926;2022-07-29T14:50:10;2.13;;;0.60;;
47335;SDS011;33068;51.990;5.926;2022-07-29T14:52:40;0.90;;;0.57;;
47335;SDS011;33068;51.990;5.926;2022-07-29T14:55:07;2.03;;;0.60;;
47335;SDS011;33068;51.990;5.926;2022-07-29T14:57:35;2.05;;;0.70;;
47335;SDS011;33068;51.990;5.926;2022-07-29T15:00:02;4.57;;;1.50;;
47335;SDS011;33068;51.990;5.926;2022-07-29T15:02:31;2.28;;;0.93;;
47335;SDS011;33068;51.990;5.926;2022-07-29T15:04:59;2.67;;;0.95;;
47335;SDS011;33068;51.990;5.926;2022-07-29T15:07:27;1.70;;;0.80;;
47335;SDS011;33068;51.990;5.926;2022-07-29T15:09:56;0.82;;;0.60;;
47335;SDS011;33068;51.990;5.926;2022-07-29T15:12:23;1.52;;;0.90;;
47335;SDS011;33068;51.990;5.926;2022-07-29T15:14:50;1.85;;;0.68;;
47335;SDS011;33068;51.990;5.926;2022-07-29T15:17:18;4.30;;;0.80;;
47335;SDS011;33068;51.990;5.926;2022-07-29T15:19:49;0.82;;;0.60;;
47335;SDS011;33068;51.990;5.926;2022-07-29T15:22:25;2.15;;;0.70;;
47335;SDS011;33068;51.990;5.926;2022-07-29T15:24:52;1.50;;;0.60;;
47335;SDS011;33068;51.990;5.926;2022-07-29T15:27:22;3.80;;;0.77;;
47335;SDS011;33068;51.990;5.926;2022-07-29T15:29:49;1.23;;;0.75;;